CA-0563 weather

Public forecast

Using degrees Celsius for public forecast. Weather courtesy of forecast.io.

Closest aviation weather report (METAR) to Hay Island Airstrip

Closest report is Wiarton Airport, 10.3 nm (19.0 km) SSW. Retrieved 2020/08/15 03:00 UTC (48 minutes ago):

CYVV 150300Z 09003KT 15SM SKC 18/17 A3007 RMK SLP182 DENSITY ALT 1200FT

Closest aviation forecast (TAF) to Hay Island Airstrip

Forecast is more than 6 hours old.

Closest forecast is Wiarton Airport, 10.3 nm (19.0 km) SSW. Retrieved 2020/08/14 20:00 UTC (8 hours ago):

TAF CYVV 141938Z 1420/1423 11012KT P6SM FEW050 RMK NXT FCST WILL BE ISSUED AT 151045Z